Terminal Aerodrome Forecast
Issued by NWS Corpus Christi, TX

Home | Current Version | Previous Version | Text Only | Print | Product List | Glossary On
Versions: 1 2 3 4 5 6 7 8 9 10 11 12 13 14 15 16
600
FTUS44 KCRP 091120
TAFCRP
TAF
KCRP 091120Z 0912/1012 01015KT P6SM BKN060 OVC080
     FM091900 02010KT P6SM OVC060=

USA.gov is the U.S. government's official web portal to all federal, state and local government web resources and services.